Time;durP1;ratioP1;P1;durP2;ratioP2;P2;SDS_P1;SDS_P2;PMS_P1;PMS_P2;Temp;Humidity;BMP_temperature;BMP_pressure;BME280_temperature;BME280_humidity;BME280_pressure;Samples;Min_cycle;Max_cycle;Signal;HPM_P1;HPM_P2
2021/10/02 00:34:01;;;;;;;15.32;8.93;;;16.60;99.90;;;16.82;87.07;101062.13;5114008;28;20492;-72
2021/10/02 00:36:55;;;;;;;11.38;8.40;;;16.50;99.90;;;16.75;87.41;101062.31;5114331;28;20039;-71
2021/10/02 00:44:56;;;;;;;14.70;7.20;;;16.40;99.90;;;16.87;87.54;101054.88;5113820;28;20043;-72
2021/10/02 00:47:26;;;;;;;14.45;7.47;;;16.50;99.90;;;16.92;87.28;101055.63;5113663;28;20031;-72
2021/10/02 00:49:57;;;;;;;12.27;7.30;;;16.60;99.90;;;16.95;87.14;101058.22;5113720;28;20096;-71
2021/10/02 00:52:27;;;;;;;13.80;8.13;;;16.60;99.90;;;17.01;86.97;101054.50;5113858;28;20438;-72
2021/10/02 00:54:56;;;;;;;13.43;7.43;;;16.60;99.90;;;17.00;86.82;101058.97;5113664;28;20120;-71
2021/10/02 00:57:25;;;;;;;14.57;8.52;;;16.60;99.90;;;17.00;86.81;101063.41;5113559;28;20093;-71
2021/10/02 00:59:54;;;;;;;15.07;8.10;;;16.60;99.90;;;16.97;86.78;101074.22;5113350;28;20043;-72
2021/10/02 01:02:26;;;;;;;13.82;8.23;;;16.60;99.90;;;16.99;86.78;101067.88;5113516;28;20043;-72
2021/10/02 01:05:24;;;;;;;17.10;8.60;;;16.60;99.90;;;16.97;86.73;101072.41;5113444;28;20043;-71
2021/10/02 01:08:04;;;;;;;13.02;7.93;;;16.60;99.90;;;16.95;86.89;101065.34;5113316;28;20414;-72
2021/10/02 01:10:44;;;;;;;15.57;8.88;;;16.60;99.90;;;16.96;86.86;101067.97;5113379;28;20092;-71
2021/10/02 01:13:34;;;;;;;15.95;9.02;;;16.60;99.90;;;16.86;86.66;101045.09;5113158;28;20040;-72
2021/10/02 01:16:11;;;;;;;14.80;9.25;;;16.60;99.90;;;16.94;86.58;101047.53;5113458;28;20075;-72
2021/10/02 01:18:45;;;;;;;13.88;8.85;;;16.60;99.90;;;16.95;86.43;101058.22;5113243;28;20039;-72
2021/10/02 01:21:48;;;;;;;19.58;9.45;;;16.60;99.90;;;16.92;86.31;101049.38;5113372;28;20067;-71
2021/10/02 01:24:34;;;;;;;14.70;9.30;;;16.60;99.90;;;16.87;86.36;101044.19;5113228;28;20485;-71
2021/10/02 01:27:19;;;;;;;12.35;9.00;;;16.50;99.90;;;16.85;86.07;101038.00;5113127;28;20039;-71
2021/10/02 01:29:52;;;;;;;16.80;9.30;;;16.50;99.90;;;16.71;85.60;101033.94;5113132;28;20123;-72
2021/10/02 01:32:30;;;;;;;13.32;8.65;;;16.40;99.90;;;16.65;85.39;101034.97;5113479;28;20057;-72
2021/10/02 01:35:09;;;;;;;13.65;7.88;;;16.40;99.90;;;16.69;85.60;101033.09;5112964;28;20047;-71
2021/10/02 01:37:57;;;;;;;14.43;8.20;;;16.30;99.90;;;16.65;85.35;101034.97;5112837;28;21033;-69
2021/10/02 01:48:50;;;;;;;15.45;8.40;;;16.10;99.90;;;16.58;85.79;101028.06;5094283;28;20043;-71
2021/10/02 01:51:20;;;;;;;12.45;8.73;;;16.20;99.90;;;16.55;85.53;101022.78;5112391;28;20050;-71
2021/10/02 01:53:49;;;;;;;11.23;8.18;;;16.20;99.90;;;16.52;85.60;101016.66;5112284;28;20071;-71
2021/10/02 01:56:20;;;;;;;15.37;9.33;;;16.10;99.90;;;16.46;85.27;101014.09;5112354;28;20069;-72
2021/10/02 01:58:50;;;;;;;13.50;9.40;;;16.00;99.90;;;16.40;85.63;101016.94;5112403;28;20101;-71
2021/10/02 02:01:21;;;;;;;15.15;8.73;;;16.00;99.90;;;16.37;85.75;101017.03;5112339;28;20093;-71
2021/10/02 02:03:55;;;;;;;14.57;9.23;;;16.00;99.90;;;16.35;85.94;101019.75;5112457;28;20126;-71
2021/10/02 02:06:27;;;;;;;17.42;9.93;;;15.90;99.90;;;16.31;86.14;101023.41;5112274;28;20046;-71
2021/10/02 02:08:58;;;;;;;16.08;10.15;;;15.90;99.90;;;16.27;86.30;101019.94;5112517;28;20105;-71
2021/10/02 02:11:29;;;;;;;13.13;9.70;;;15.90;99.90;;;16.20;86.60;101020.13;5112333;28;20051;-71
2021/10/02 02:14:00;;;;;;;17.90;10.77;;;15.90;99.90;;;16.23;86.67;101022.72;5112614;28;20035;-71
2021/10/02 02:16:32;;;;;;;12.63;9.85;;;15.80;99.90;;;16.23;86.57;101020.94;5112780;28;20048;-72
2021/10/02 02:19:02;;;;;;;16.48;10.07;;;15.80;99.90;;;16.21;86.59;101017.41;5112375;28;20431;-71
2021/10/02 02:21:30;;;;;;;13.68;9.27;;;15.80;99.90;;;16.20;86.42;101012.13;5112085;28;20051;-70
2021/10/02 02:23:59;;;;;;;15.63;9.50;;;15.80;99.90;;;16.26;86.49;101009.28;5112066;28;20463;-72
2021/10/02 02:26:29;;;;;;;16.02;10.35;;;15.80;99.90;;;16.23;86.67;101006.69;5115536;28;20507;-72
2021/10/02 02:28:58;;;;;;;14.80;9.15;;;15.80;99.90;;;16.19;86.34;101005.91;5116236;28;20044;-71
2021/10/02 02:31:29;;;;;;;13.73;9.68;;;15.80;99.90;;;16.20;86.62;101001.44;5115738;28;20498;-71
2021/10/02 02:33:57;;;;;;;;;;;15.90;99.90;;;16.12;86.50;100990.94;5116834;28;20039;-71
2021/10/02 02:36:26;;;;;;;12.45;9.23;;;15.90;99.90;;;16.27;86.58;100997.69;5116214;28;19969;-71
2021/10/02 02:38:55;;;;;;;17.10;9.57;;;15.90;99.90;;;16.27;86.50;100995.91;5115828;28;20450;-71
2021/10/02 02:41:23;;;;;;;13.55;9.07;;;15.90;99.90;;;16.18;86.23;100989.94;5115842;28;20105;-71
2021/10/02 02:43:52;;;;;;;12.70;9.00;;;15.90;99.90;;;16.15;86.24;100987.31;5115584;28;20089;-71
2021/10/02 02:46:27;;;;;;;11.35;8.70;;;15.80;99.90;;;16.13;86.05;100970.47;5115541;28;20098;-72
2021/10/02 02:49:05;;;;;;;9.57;7.80;;;15.70;99.90;;;16.03;86.10;100971.59;5097317;28;20055;-72
2021/10/02 02:51:40;;;;;;;12.35;8.60;;;15.60;99.90;;;15.47;86.13;100885.00;5115490;28;20039;-71
2021/10/02 02:54:23;;;;;;;12.10;8.80;;;15.50;99.90;;;15.92;86.24;100982.56;5115455;28;20043;-71
2021/10/02 02:56:53;;;;;;;10.20;8.00;;;15.50;99.90;;;15.93;86.06;100970.97;5115603;28;20044;-72
2021/10/02 02:59:29;;;;;;;10.32;8.07;;;15.50;99.90;;;15.85;86.02;100977.41;5097203;28;20086;-72
2021/10/02 03:01:59;;;;;;;9.45;8.50;;;15.50;99.90;;;15.74;86.31;100977.66;5115224;28;20100;-72
2021/10/02 03:04:33;;;;;;;10.52;7.72;;;15.50;99.90;;;15.74;86.25;100979.44;5115221;28;20138;-72
2021/10/02 03:07:05;;;;;;;11.60;7.70;;;15.50;99.90;;;15.69;86.31;100984.91;5115062;28;20042;-72
2021/10/02 03:09:39;;;;;;;10.27;7.93;;;15.50;99.90;;;15.77;86.61;100977.59;5115041;28;20128;-70
2021/10/02 03:12:09;;;;;;;10.30;7.20;;;15.40;99.90;;;15.72;86.29;100976.81;5096793;28;20047;-71
2021/10/02 03:14:38;;;;;;;12.60;7.22;;;15.40;99.90;;;15.67;86.29;100985.84;5114942;28;20131;-71
2021/10/02 03:17:09;;;;;;;11.10;7.50;;;15.40;99.90;;;15.54;86.24;100990.59;5114869;28;20067;-72
2021/10/02 03:19:40;;;;;;;9.68;6.72;;;15.30;99.90;;;15.46;86.35;100989.00;5114840;28;20048;-71
2021/10/02 03:22:10;;;;;;;6.80;6.18;;;15.20;99.90;;;15.48;86.18;100989.84;5114740;28;20478;-72
2021/10/02 03:24:40;;;;;;;7.03;6.32;;;15.20;99.90;;;15.37;86.00;100985.59;5114869;28;20051;-71
2021/10/02 03:27:10;;;;;;;9.02;6.07;;;15.10;99.90;;;15.28;85.96;100982.25;5114801;28;20031;-71
2021/10/02 03:29:40;;;;;;;9.88;6.28;;;15.00;99.90;;;15.25;85.85;100977.84;5114794;28;20044;-72
2021/10/02 03:32:10;;;;;;;11.18;5.70;;;14.90;99.90;;;15.23;85.68;100984.16;5114475;28;20498;-73
2021/10/02 03:34:40;;;;;;;9.35;5.38;;;14.80;99.90;;;15.15;85.29;100975.44;5115060;28;20047;-72
2021/10/02 03:37:09;;;;;;;9.60;5.85;;;14.80;99.90;;;15.16;85.12;100978.06;5114569;28;20384;-72
2021/10/02 03:39:37;;;;;;;9.77;5.88;;;14.70;99.90;;;15.13;85.14;100983.47;5114131;28;20095;-73
2021/10/02 03:42:13;;;;;;;9.95;5.18;;;14.70;99.90;;;15.18;84.83;100984.25;5114438;28;20044;-71
2021/10/02 03:44:44;;;;;;;7.38;5.38;;;14.80;99.90;;;14.94;84.66;100978.56;5114306;28;20039;-71
2021/10/02 03:47:14;;;;;;;;;;;14.60;99.90;;;14.78;85.03;100970.00;5115220;28;20093;-72
2021/10/02 03:49:45;;;;;;;11.50;5.63;;;14.40;99.90;;;14.84;85.51;100974.31;5114659;28;19919;-72
2021/10/02 03:52:14;;;;;;;12.63;5.70;;;14.40;99.90;;;14.75;85.66;100970.03;5114262;28;20074;-72
2021/10/02 03:54:43;;;;;;;9.00;6.10;;;14.40;99.90;;;14.74;86.04;100970.97;5114146;28;20077;-71
2021/10/02 03:57:12;;;;;;;9.50;5.00;;;14.30;99.90;;;14.75;86.33;100970.03;5114003;28;20055;-71
2021/10/02 03:59:40;;;;;;;8.80;6.10;;;14.40;99.90;;;14.75;86.65;100979.84;5114423;28;20397;-72
2021/10/02 04:02:09;;;;;;;11.40;6.03;;;14.40;99.90;;;14.35;87.08;100899.84;5114048;28;20040;-71
2021/10/02 04:04:37;;;;;;;13.35;7.13;;;14.40;99.90;;;14.70;87.18;100969.25;5113790;28;20052;-71
2021/10/02 04:07:08;;;;;;;9.45;6.55;;;14.40;99.90;;;14.61;87.29;100955.25;5113984;28;20122;-71
2021/10/02 04:09:36;;;;;;;11.63;6.53;;;14.40;99.90;;;14.52;87.22;100944.81;5113713;28;20044;-72
2021/10/02 04:12:05;;;;;;;12.05;6.60;;;14.30;99.90;;;14.69;87.61;100967.50;5113746;28;20126;-72
2021/10/02 04:14:34;;;;;;;9.82;6.38;;;14.30;99.90;;;14.66;87.63;100962.25;5113747;28;20043;-70
2021/10/02 04:17:03;;;;;;;14.90;7.18;;;14.30;99.90;;;14.68;87.61;100968.41;5113764;28;20047;-71
2021/10/02 04:19:31;;;;;;;13.63;7.40;;;14.30;99.90;;;14.71;87.71;100963.03;5113698;28;20043;-72
2021/10/02 04:21:59;;;;;;;13.57;7.13;;;14.40;99.90;;;14.72;87.57;100953.25;5113432;28;20075;-71
2021/10/02 04:24:29;;;;;;;12.45;7.57;;;14.40;99.90;;;14.67;87.90;100961.34;5113725;28;20043;-71
2021/10/02 04:26:59;;;;;;;13.80;7.70;;;14.40;99.90;;;14.60;87.67;100965.03;5113558;28;20086;-71
2021/10/02 04:29:28;;;;;;;17.45;8.45;;;14.30;99.90;;;14.53;87.99;100968.72;5113839;28;20044;-71
2021/10/02 04:31:57;;;;;;;10.88;8.30;;;14.40;99.90;;;14.52;88.08;100964.28;5113460;28;20198;-71
2021/10/02 04:34:25;;;;;;;12.43;8.52;;;14.30;99.90;;;14.52;88.21;100953.63;5094958;28;20051;-71
2021/10/02 04:36:54;;;;;;;13.55;8.32;;;14.30;99.90;;;14.34;88.50;100920.25;5113331;28;20122;-71
2021/10/02 04:39:23;;;;;;;11.60;9.00;;;14.30;99.90;;;14.60;88.84;100943.72;5113308;28;20105;-71
2021/10/02 04:41:53;;;;;;;11.55;7.95;;;14.30;99.90;;;14.58;88.81;100940.22;5113381;28;20487;-71
2021/10/02 04:44:22;;;;;;;15.77;8.80;;;14.30;99.90;;;14.55;88.54;100950.94;5113417;28;20048;-72
2021/10/02 04:46:51;;;;;;;12.85;8.30;;;14.30;99.90;;;14.48;88.54;100950.16;5113255;28;20548;-70
2021/10/02 04:49:19;;;;;;;16.67;9.10;;;14.20;99.90;;;14.41;88.45;100948.53;5094469;28;20059;-71
2021/10/02 04:51:48;;;;;;;14.52;10.50;;;14.10;99.90;;;14.41;88.87;100948.53;5113122;28;20047;-71
2021/10/02 04:54:17;;;;;;;16.75;9.77;;;14.20;99.90;;;14.48;88.88;100952.81;5113226;28;20525;-71
2021/10/02 04:56:46;;;;;;;16.55;10.82;;;14.10;99.90;;;14.49;89.16;100945.72;5094815;28;20825;-71
2021/10/02 04:59:16;;;;;;;18.42;10.95;;;14.20;99.90;;;14.53;89.19;100942.09;5113134;28;20043;-71
2021/10/02 05:01:44;;;;;;;18.60;11.07;;;14.30;99.90;;;14.51;89.42;100940.38;5094597;28;20051;-71
2021/10/02 05:04:13;;;;;;;22.65;10.60;;;14.30;99.90;;;14.40;89.41;100930.78;5095030;28;20131;-71
2021/10/02 05:06:41;;;;;;;19.25;10.73;;;14.30;99.90;;;14.44;89.38;100950.25;5112957;28;20044;-71
2021/10/02 05:09:10;;;;;;;17.25;11.32;;;14.20;99.90;;;14.02;89.34;100901.34;5112878;28;20067;-71
2021/10/02 05:11:38;;;;;;;21.77;11.98;;;14.10;99.90;;;14.24;90.18;100947.94;5113226;28;20096;-71
2021/10/02 05:14:06;;;;;;;23.92;12.27;;;14.10;99.90;;;14.24;91.11;100955.91;5094952;28;20565;-71
2021/10/02 05:16:36;;;;;;;23.17;12.45;;;14.10;99.90;;;14.11;91.93;100941.06;5113089;28;20040;-72
2021/10/02 05:19:05;;;;;;;20.35;12.00;;;14.00;99.90;;;14.20;92.63;100953.34;5094608;28;20094;-71
2021/10/02 05:21:33;;;;;;;26.80;12.82;;;14.00;99.90;;;14.22;93.09;100951.53;5112739;28;20046;-71
2021/10/02 05:24:02;;;;;;;23.50;13.65;;;14.00;99.90;;;14.26;93.05;100955.88;5112884;28;20044;-73
2021/10/02 05:26:31;;;;;;;21.50;12.88;;;14.00;99.90;;;14.33;93.08;100955.78;5112604;28;20073;-73
2021/10/02 05:28:59;;;;;;;26.08;12.70;;;14.10;99.90;;;14.47;93.11;100950.19;5112545;28;20553;-72
2021/10/02 05:31:27;;;;;;;16.58;12.07;;;14.20;99.90;;;14.50;92.74;100952.78;5094353;28;20484;-73
2021/10/02 05:33:57;;;;;;;24.15;11.15;;;14.30;99.90;;;14.40;92.55;100945.91;5112498;28;20122;-72
2021/10/02 05:36:26;;;;;;;22.90;10.63;;;14.30;99.90;;;14.28;92.50;100940.81;5094198;28;20542;-72
2021/10/02 05:38:54;;;;;;;28.17;11.68;;;14.20;99.90;;;14.30;92.43;100946.97;5112473;28;20131;-72
2021/10/02 05:41:22;;;;;;;20.10;10.65;;;14.10;99.90;;;14.22;92.67;100943.53;5112142;28;20051;-73
2021/10/02 05:43:51;;;;;;;20.13;10.77;;;14.10;99.90;;;14.34;92.70;100940.69;5112519;28;20119;-72
2021/10/02 05:46:19;;;;;;;16.45;9.80;;;14.10;99.90;;;14.31;92.08;100949.59;5112315;28;20048;-72
2021/10/02 05:48:48;;;;;;;22.45;10.90;;;14.10;99.90;;;14.32;91.49;100951.34;5112324;28;20104;-72
2021/10/02 05:51:18;;;;;;;17.08;10.02;;;14.10;99.90;;;14.25;91.13;100951.44;5093942;28;20410;-72
2021/10/02 05:53:46;;;;;;;21.80;10.05;;;14.10;99.90;;;14.29;90.98;100955.84;5112196;28;20077;-72
2021/10/02 05:56:14;;;;;;;16.73;8.75;;;14.10;99.90;;;14.25;90.32;100952.34;5094056;28;20461;-72
2021/10/02 05:58:43;;;;;;;18.23;9.10;;;14.00;99.90;;;14.30;90.03;100944.31;5112217;28;20188;-72
2021/10/02 06:01:11;;;;;;;23.48;8.95;;;14.10;99.90;;;14.20;89.61;100953.34;5115430;28;20046;-72
2021/10/02 06:03:41;;;;;;;18.42;8.70;;;14.00;99.90;;;14.29;89.69;100942.53;5116254;28;20036;-72
2021/10/02 06:06:09;;;;;;;18.92;8.57;;;14.10;99.90;;;14.34;88.78;100954.84;5116226;28;20475;-72
2021/10/02 06:08:39;;;;;;;18.00;7.75;;;14.10;99.90;;;14.44;88.78;100956.44;5116467;28;20044;-72
2021/10/02 06:11:08;;;;;;;14.73;6.90;;;14.20;99.90;;;14.48;87.88;100952.81;5116522;28;20122;-72
2021/10/02 06:13:36;;;;;;;17.10;7.13;;;14.20;99.90;;;14.53;87.19;100947.44;5116204;28;20147;-73
2021/10/02 06:16:05;;;;;;;18.95;7.22;;;14.30;99.90;;;14.65;86.23;100952.50;5116022;28;20040;-72
2021/10/02 06:18:34;;;;;;;12.90;7.00;;;14.40;99.90;;;14.72;85.21;100950.59;5116014;28;20442;-72
2021/10/02 06:21:03;;;;;;;14.98;6.43;;;14.50;99.90;;;14.57;84.21;100949.13;5115930;28;20047;-72
2021/10/02 06:23:31;;;;;;;13.55;6.35;;;14.40;99.90;;;14.62;84.70;100952.56;5115940;28;20432;-72
2021/10/02 06:26:01;;;;;;;15.10;6.22;;;14.40;99.90;;;14.67;84.52;100950.69;5115955;28;20114;-72
2021/10/02 06:28:29;;;;;;;17.23;6.57;;;14.40;99.90;;;14.65;84.18;100940.97;5115936;28;20055;-72
2021/10/02 06:30:58;;;;;;;15.18;6.28;;;14.50;99.90;;;14.64;83.60;100931.22;5115756;28;20067;-71
2021/10/02 06:33:27;;;;;;;14.25;6.93;;;14.50;99.90;;;14.74;83.04;100936.34;5115857;28;20357;-72
2021/10/02 06:35:56;;;;;;;14.25;7.38;;;14.60;99.90;;;14.76;82.65;100942.53;5115441;28;20086;-71
2021/10/02 06:38:25;;;;;;;13.68;7.07;;;14.50;99.90;;;14.69;83.03;100932.88;5115474;28;20101;-71
2021/10/02 06:40:53;;;;;;;16.83;7.35;;;14.50;99.90;;;14.70;83.06;100934.66;5097376;28;20062;-71
2021/10/02 06:43:23;;;;;;;16.40;7.15;;;14.50;99.90;;;14.79;82.68;100931.78;5115427;28;20044;-72
2021/10/02 06:45:51;;;;;;;12.60;6.43;;;14.60;99.90;;;14.72;82.71;100938.16;5115499;28;20054;-72
2021/10/02 06:48:20;;;;;;;14.02;6.72;;;14.60;99.90;;;14.84;82.22;100931.72;5115494;28;20039;-72
2021/10/02 06:50:48;;;;;;;16.48;7.43;;;14.60;99.90;;;14.85;82.36;100929.00;5115492;28;20069;-71
2021/10/02 06:53:17;;;;;;;16.33;6.70;;;14.70;99.90;;;14.89;82.31;100933.34;5115703;28;20039;-71
2021/10/02 06:55:45;;;;;;;16.58;6.82;;;14.70;99.90;;;14.86;82.45;100922.78;5115602;28;20055;-72
2021/10/02 06:58:14;;;;;;;14.77;7.07;;;14.70;99.90;;;14.73;82.25;100918.59;5115254;28;20142;-72
2021/10/02 07:00:44;;;;;;;15.60;7.20;;;14.60;99.90;;;14.83;82.76;100925.50;5115262;28;20488;-72
2021/10/02 07:03:14;;;;;;;17.92;7.25;;;14.60;99.90;;;14.85;82.86;100923.69;5115235;28;20036;-72
2021/10/02 07:05:42;;;;;;;19.40;8.32;;;14.70;99.90;;;14.87;82.90;100921.88;5115580;28;20119;-72
2021/10/02 07:08:11;;;;;;;18.52;7.55;;;14.60;99.90;;;14.88;82.71;100920.97;5114838;28;20459;-71
2021/10/02 07:10:39;;;;;;;19.00;7.90;;;14.60;99.90;;;14.84;82.57;100908.63;5114448;28;20123;-71
2021/10/02 07:13:08;;;;;;;15.02;7.38;;;14.70;99.90;;;15.00;82.65;100918.00;5114956;28;20474;-71
2021/10/02 07:15:37;;;;;;;22.27;7.40;;;14.80;99.90;;;15.06;82.37;100915.22;5114961;28;20393;-71
2021/10/02 07:18:07;;;;;;;15.73;7.75;;;14.80;99.90;;;15.14;82.19;100915.94;5114876;28;20064;-72
2021/10/02 07:20:36;;;;;;;15.47;7.13;;;14.90;99.90;;;15.29;81.82;100917.41;5114891;28;20044;-70
2021/10/02 07:23:04;;;;;;;17.58;7.93;;;15.00;99.90;;;15.34;81.19;100904.81;5096542;28;20352;-74
2021/10/02 07:25:33;;;;;;;17.02;7.43;;;15.10;99.90;;;15.32;80.45;100899.53;5114723;28;20096;-78
2021/10/02 07:28:01;;;;;;;17.35;6.88;;;15.20;99.90;;;15.48;80.30;100910.75;5114762;28;20096;-75
2021/10/02 07:30:29;;;;;;;13.82;6.57;;;15.20;99.90;;;15.45;79.45;100905.47;5096408;28;20055;-76
2021/10/02 07:32:58;;;;;;;13.65;6.72;;;15.20;99.90;;;15.31;79.07;100899.59;5096199;28;20043;-78
2021/10/02 07:35:28;;;;;;;14.82;6.93;;;15.20;99.90;;;15.16;79.32;100887.47;5096208;28;20077;-74
2021/10/02 07:37:56;;;;;;;21.30;7.13;;;15.10;99.90;;;15.22;79.44;100892.66;5095959;28;20059;-77
2021/10/02 07:40:25;;;;;;;13.75;7.15;;;15.10;99.90;;;15.31;79.58;100892.44;5115107;28;20130;-75
2021/10/02 07:42:55;;;;;;;14.63;6.85;;;15.10;99.90;;;15.32;79.12;100896.88;5114455;28;20078;-72
2021/10/02 07:45:26;;;;;;;19.45;7.45;;;15.10;99.90;;;15.33;79.14;100901.28;5114417;28;20037;-72
2021/10/02 07:47:56;;;;;;;16.40;7.10;;;15.10;99.90;;;15.22;78.97;100900.66;5114341;28;20092;-72
2021/10/02 07:50:27;;;;;;;12.05;7.15;;;15.10;99.90;;;15.37;79.09;100915.41;5114351;28;20040;-76
2021/10/02 07:52:57;;;;;;;17.33;7.07;;;15.20;99.90;;;15.42;79.15;100915.34;5114279;28;20040;-76
2021/10/02 07:55:27;;;;;;;14.98;7.05;;;15.20;99.90;;;15.49;79.41;100906.28;5096080;28;20092;-75
2021/10/02 07:57:56;;;;;;;15.95;7.43;;;15.30;99.90;;;15.44;78.99;100919.75;5114166;28;20043;-73
2021/10/02 08:00:25;;;;;;;21.90;7.00;;;15.30;99.90;;;15.53;78.82;100907.97;5114259;28;20035;-74
2021/10/02 08:02:55;;;;;;;17.98;6.90;;;15.30;99.90;;;15.60;78.31;100910.44;5114031;28;20039;-76
2021/10/02 08:05:25;;;;;;;;;;;15.40;99.90;;;15.64;77.96;100914.78;5114472;28;20100;-75
2021/10/02 08:07:54;;;;;;;12.15;5.88;;;15.50;99.90;;;15.76;77.66;100900.28;5113894;28;20313;-77
2021/10/02 08:10:27;;;;;;;17.10;6.85;;;15.50;99.90;;;15.90;77.51;100882.13;5114027;28;20446;-75
2021/10/02 08:12:56;;;;;;;12.45;6.82;;;15.60;99.90;;;15.89;76.92;100880.41;5095996;28;20109;-73
2021/10/02 08:15:25;;;;;;;18.00;6.88;;;15.70;99.90;;;16.07;76.94;100880.78;5114061;28;20465;-75
2021/10/02 08:17:56;;;;;;;13.32;6.50;;;15.80;99.90;;;16.14;76.01;100892.19;5114022;28;20374;-73
2021/10/02 08:20:25;;;;;;;;;;;15.90;99.90;;;16.30;76.03;100897.97;5096450;28;20538;-73
2021/10/02 08:22:59;;;;;;;12.85;6.53;;;16.10;99.90;;;16.42;74.33;100889.59;5112977;28;19919;-73
2021/10/02 08:25:29;;;;;;;17.52;6.13;;;16.20;99.90;;;16.46;72.96;100881.47;5113831;28;20507;-73
2021/10/02 08:27:59;;;;;;;14.45;6.35;;;16.30;99.90;;;16.56;72.84;100879.44;5113697;28;20051;-72
2021/10/02 08:30:28;;;;;;;16.75;6.53;;;16.30;99.90;;;16.72;72.91;100876.31;5113551;28;20043;-77
2021/10/02 08:32:57;;;;;;;17.17;7.50;;;16.50;99.90;;;16.96;71.73;100880.91;5113944;28;20050;-74
2021/10/02 08:35:26;;;;;;;17.92;7.72;;;16.70;99.90;;;17.00;69.68;100876.34;5113523;28;20055;-79
2021/10/02 08:37:56;;;;;;;18.05;6.82;;;16.80;99.90;;;17.12;69.19;100876.84;5113202;28;20067;-76
2021/10/02 08:40:24;;;;;;;14.97;7.03;;;16.90;99.90;;;17.15;69.75;100876.75;5113379;28;20112;-75
2021/10/02 08:42:54;;;;;;;15.27;6.30;;;17.00;99.90;;;17.28;67.37;100869.22;5113255;28;20051;-76
2021/10/02 08:45:23;;;;;;;12.23;5.95;;;17.10;99.90;;;17.33;67.17;100871.72;5113579;28;20078;-82
2021/10/02 08:47:51;;;;;;;33.30;6.60;;;17.10;99.90;;;17.37;67.86;100854.66;5113717;28;20066;-82
2021/10/02 08:50:20;;;;;;;17.92;6.53;;;17.20;99.90;;;16.87;66.89;100803.72;5113330;28;20052;-85
2021/10/02 08:52:53;;;;;;;15.15;6.30;;;17.10;99.90;;;16.98;67.65;100852.34;5113384;28;20581;-76
2021/10/02 08:55:26;;;;;;;15.00;6.47;;;16.90;99.90;;;16.76;66.93;100847.69;5112941;28;20039;-73
2021/10/02 08:57:54;;;;;;;14.65;6.03;;;16.70;99.90;;;16.93;67.82;100840.94;5112784;28;20043;-77
2021/10/02 09:00:25;;;;;;;24.25;6.88;;;16.70;99.90;;;17.04;67.76;100824.53;5113325;28;20382;-76
2021/10/02 09:02:55;;;;;;;19.20;8.25;;;16.80;99.90;;;17.12;68.87;100825.19;5112973;28;20055;-73
2021/10/02 09:05:25;;;;;;;14.98;7.28;;;16.90;99.90;;;16.83;70.25;100828.78;5112725;28;20134;-71
2021/10/02 09:07:57;;;;;;;10.13;6.10;;;16.70;99.90;;;16.32;70.47;100840.09;5112532;28;20055;-72
2021/10/02 09:10:30;;;;;;;11.10;6.38;;;16.30;99.90;;;16.25;71.00;100826.03;5094529;28;20052;-73
2021/10/02 09:12:59;;;;;;;14.95;7.03;;;16.10;99.90;;;15.77;73.62;100824.69;5112448;28;20567;-71
2021/10/02 09:15:29;;;;;;;11.30;6.70;;;15.70;99.90;;;15.81;73.69;100823.69;5112562;28;20039;-74
2021/10/02 09:17:58;;;;;;;14.90;8.27;;;15.60;99.90;;;15.87;74.41;100820.88;5094572;28;20159;-73
2021/10/02 09:20:28;;;;;;;15.60;9.60;;;15.70;99.90;;;15.69;75.29;100826.69;5094108;28;20058;-77
2021/10/02 09:22:59;;;;;;;26.67;13.60;;;15.60;99.90;;;15.59;75.87;100815.38;5094303;28;20476;-75
2021/10/02 09:25:32;;;;;;;21.15;15.27;;;15.40;99.90;;;15.74;77.78;100808.75;5112437;28;20426;-75
2021/10/02 09:28:11;;;;;;;31.00;17.55;;;15.50;99.90;;;15.59;79.04;100810.03;5112446;28;20497;-71
2021/10/02 09:30:42;;;;;;;27.10;18.48;;;15.40;99.90;;;15.64;80.63;100794.78;5112518;28;20047;-70
2021/10/02 09:33:17;;;;;;;28.48;20.25;;;15.40;99.90;;;15.37;80.71;100790.13;5112509;28;20047;-73
2021/10/02 09:35:46;;;;;;;33.03;22.15;;;15.40;99.90;;;15.55;80.73;100794.16;5112895;28;20051;-73
2021/10/02 09:38:18;;;;;;;31.35;22.75;;;15.40;99.90;;;15.55;81.63;100789.69;5112509;28;20051;-73
2021/10/02 09:40:52;;;;;;;30.92;22.80;;;15.40;99.90;;;15.54;82.27;100797.75;5112259;28;20078;-72
2021/10/02 09:43:21;;;;;;;31.80;22.75;;;15.40;99.90;;;15.70;81.94;100778.63;5112205;28;20047;-73
2021/10/02 09:45:52;;;;;;;30.40;23.42;;;15.50;99.90;;;15.81;81.88;100787.25;5112227;28;20453;-73
2021/10/02 09:48:28;;;;;;;31.63;23.17;;;15.70;99.90;;;15.96;82.08;100796.59;5112475;28;20463;-72
2021/10/02 09:51:05;;;;;;;37.78;25.15;;;15.70;99.90;;;15.98;81.38;100790.31;5112590;28;20139;-72
2021/10/02 09:53:39;;;;;;;31.92;24.00;;;15.80;99.90;;;16.02;81.85;100783.09;5112122;28;20428;-72
2021/10/02 09:56:12;;;;;;;36.92;25.70;;;15.80;99.90;;;16.16;82.20;100778.25;5094630;28;20059;-74
2021/10/02 09:58:43;;;;;;;33.85;24.35;;;15.90;99.90;;;15.96;81.71;100776.13;5112166;28;20462;-73
2021/10/02 10:01:24;;;;;;;35.08;24.50;;;15.80;99.90;;;15.85;82.62;100767.53;5112098;28;20154;-73
2021/10/02 10:03:53;;;;;;;;;;;15.70;99.90;;;15.92;82.19;100762.91;5094259;28;20052;-74
2021/10/02 10:06:25;;;;;;;31.70;23.02;;;15.80;99.90;;;15.95;82.87;100766.38;5111748;28;19924;-73
2021/10/02 10:09:06;;;;;;;28.55;19.05;;;15.70;99.90;;;15.97;81.19;100755.66;5093701;28;20084;-74
2021/10/02 10:11:45;;;;;;;27.60;16.75;;;15.80;99.90;;;15.30;81.80;100677.50;5093632;28;20062;-73
2021/10/02 10:14:22;;;;;;;26.98;18.17;;;15.60;99.90;;;15.83;82.45;100752.50;5111969;28;20127;-71
2021/10/02 10:16:50;;;;;;;29.50;18.30;;;15.60;99.90;;;15.70;81.91;100730.63;5111877;28;20067;-73
2021/10/02 10:19:21;;;;;;;27.15;17.63;;;15.60;99.90;;;15.76;82.20;100725.13;5112145;28;20043;-63
2021/10/02 10:22:06;;;;;;;;;;;15.60;99.90;;;15.82;82.49;100722.28;5112329;28;20035;-74
2021/10/02 10:24:35;;;;;;;30.10;17.85;;;15.60;99.90;;;15.86;83.09;100731.97;5111860;28;19955;-72
2021/10/02 10:27:05;;;;;;;35.28;18.17;;;15.70;99.90;;;15.85;83.47;100724.00;5111741;28;20088;-74
2021/10/02 10:29:44;;;;;;;28.48;18.63;;;15.60;99.90;;;15.91;83.36;100721.16;5111797;28;20047;-72
2021/10/02 10:32:13;;;;;;;23.65;17.15;;;15.70;99.90;;;15.94;83.61;100719.28;5111771;28;20106;-73
2021/10/02 10:34:43;;;;;;;23.52;15.52;;;15.80;99.90;;;16.03;83.08;100726.13;5111785;28;20473;-75
2021/10/02 10:37:12;;;;;;;24.08;16.23;;;15.90;99.90;;;16.12;82.50;100716.06;5112049;28;20171;-82
2021/10/02 10:39:41;;;;;;;22.25;13.70;;;16.00;99.90;;;16.20;82.65;100716.72;5111776;28;20114;-73
2021/10/02 10:42:11;;;;;;;18.00;8.43;;;16.00;99.90;;;16.10;81.57;100677.88;5112376;28;20036;-72
2021/10/02 10:44:40;;;;;;;17.17;8.00;;;16.00;99.90;;;16.20;80.76;100689.16;5111994;28;20074;-73
2021/10/02 10:47:09;;;;;;;19.17;9.30;;;16.00;99.90;;;16.29;80.81;100696.88;5114892;28;20047;-73
2021/10/02 10:49:38;;;;;;;16.25;8.73;;;16.00;99.90;;;16.26;80.94;100688.97;5115345;28;20070;-72
2021/10/02 10:52:13;;;;;;;16.88;8.15;;;16.00;99.90;;;16.40;80.41;100688.53;5115367;28;20097;-73
2021/10/02 10:54:43;;;;;;;18.63;8.25;;;16.20;99.90;;;16.36;80.09;100674.41;5115305;28;20549;-74
2021/10/02 10:57:38;;;;;;;17.30;8.50;;;16.20;99.90;;;16.36;80.13;100665.53;5115434;28;20104;-76
2021/10/02 11:00:12;;;;;;;15.85;7.93;;;16.20;99.90;;;16.24;79.92;100666.78;5115500;28;20116;-79
2021/10/02 11:02:53;;;;;;;17.08;9.15;;;16.10;99.90;;;16.31;80.75;100646.13;5096854;28;20518;-75
2021/10/02 11:05:48;;;;;;;16.08;8.75;;;16.10;99.90;;;16.51;80.80;100657.09;5115497;28;20096;-79
2021/10/02 11:08:21;;;;;;;13.77;8.27;;;16.30;99.90;;;16.32;80.15;100654.06;5115525;28;20481;-82